sensor_id;sensor_type;location;lat;lon;timestamp;pressure;altitude;pressure_sealevel;temperature;humidity
64628;BME280;59036;50.960;0.314;2022-09-13T00:01:54;99342.95;;;20.85;46.10
64628;BME280;59036;50.960;0.314;2022-09-13T00:04:21;99337.59;;;20.43;46.53
64628;BME280;59036;50.960;0.314;2022-09-13T00:06:48;99334.10;;;20.38;46.95
64628;BME280;59036;50.960;0.314;2022-09-13T00:09:15;99332.08;;;20.44;46.54
64628;BME280;59036;50.960;0.314;2022-09-13T00:11:47;99326.29;;;20.57;46.82
64628;BME280;59036;50.960;0.314;2022-09-13T00:14:14;99326.43;;;20.71;46.15
64628;BME280;59036;50.960;0.314;2022-09-13T00:16:41;99332.97;;;20.61;46.56
64628;BME280;59036;50.960;0.314;2022-09-13T00:19:08;99334.89;;;20.59;46.94
64628;BME280;59036;50.960;0.314;2022-09-13T00:21:35;99337.87;;;20.68;46.35
64628;BME280;59036;50.960;0.314;2022-09-13T00:24:02;99339.94;;;21.30;45.69
64628;BME280;59036;50.960;0.314;2022-09-13T00:26:34;99338.49;;;20.91;46.09
64628;BME280;59036;50.960;0.314;2022-09-13T00:29:01;99338.04;;;20.70;46.45
64628;BME280;59036;50.960;0.314;2022-09-13T00:31:28;99340.19;;;20.90;46.29
64628;BME280;59036;50.960;0.314;2022-09-13T00:33:57;99344.32;;;21.50;45.87
64628;BME280;59036;50.960;0.314;2022-09-13T00:36:25;99348.25;;;21.14;45.94
64628;BME280;59036;50.960;0.314;2022-09-13T00:38:52;99349.13;;;21.04;46.20
64628;BME280;59036;50.960;0.314;2022-09-13T00:41:20;99350.29;;;20.84;46.48
64628;BME280;59036;50.960;0.314;2022-09-13T00:43:49;99350.77;;;20.61;47.19
64628;BME280;59036;50.960;0.314;2022-09-13T00:46:25;99350.60;;;20.83;46.74
64628;BME280;59036;50.960;0.314;2022-09-13T00:48:56;99345.86;;;21.02;45.76
64628;BME280;59036;50.960;0.314;2022-09-13T00:51:26;99342.43;;;21.27;46.10
64628;BME280;59036;50.960;0.314;2022-09-13T00:53:55;99344.04;;;20.87;47.09
64628;BME280;59036;50.960;0.314;2022-09-13T00:56:28;99341.77;;;20.27;47.66
64628;BME280;59036;50.960;0.314;2022-09-13T00:59:00;99336.68;;;20.87;47.08
64628;BME280;59036;50.960;0.314;2022-09-13T01:01:34;99329.40;;;20.97;46.44
64628;BME280;59036;50.960;0.314;2022-09-13T01:04:03;99327.49;;;20.92;46.05
64628;BME280;59036;50.960;0.314;2022-09-13T01:06:33;99328.92;;;20.82;45.42
64628;BME280;59036;50.960;0.314;2022-09-13T01:09:07;99327.60;;;20.85;45.89
64628;BME280;59036;50.960;0.314;2022-09-13T01:11:41;99323.46;;;21.20;45.25
64628;BME280;59036;50.960;0.314;2022-09-13T01:14:11;99323.86;;;20.72;46.28
64628;BME280;59036;50.960;0.314;2022-09-13T01:16:39;99320.11;;;20.70;46.19
64628;BME280;59036;50.960;0.314;2022-09-13T01:19:06;99315.97;;;20.49;46.76
64628;BME280;59036;50.960;0.314;2022-09-13T01:22:01;99310.54;;;21.18;45.93
64628;BME280;59036;50.960;0.314;2022-09-13T01:24:55;99304.97;;;20.40;46.98
64628;BME280;59036;50.960;0.314;2022-09-13T01:27:36;99298.22;;;20.72;46.33
64628;BME280;59036;50.960;0.314;2022-09-13T01:30:12;99294.52;;;20.69;46.66
64628;BME280;59036;50.960;0.314;2022-09-13T01:33:25;99296.64;;;20.31;47.33
64628;BME280;59036;50.960;0.314;2022-09-13T01:36:17;99294.52;;;20.62;47.23
64628;BME280;59036;50.960;0.314;2022-09-13T01:38:54;99290.04;;;19.47;49.50
64628;BME280;59036;50.960;0.314;2022-09-13T01:41:41;99287.85;;;20.40;48.42
64628;BME280;59036;50.960;0.314;2022-09-13T01:44:28;99287.74;;;20.24;47.96
64628;BME280;59036;50.960;0.314;2022-09-13T01:47:02;99288.81;;;19.97;48.13
64628;BME280;59036;50.960;0.314;2022-09-13T01:49:40;99284.65;;;20.07;47.62
64628;BME280;59036;50.960;0.314;2022-09-13T01:52:17;99284.12;;;20.02;47.86
64628;BME280;59036;50.960;0.314;2022-09-13T01:54:51;99282.26;;;19.70;48.93
64628;BME280;59036;50.960;0.314;2022-09-13T01:57:27;99278.30;;;20.06;48.47
64628;BME280;59036;50.960;0.314;2022-09-13T02:00:02;99280.02;;;20.00;48.53
64628;BME280;59036;50.960;0.314;2022-09-13T02:02:33;99281.85;;;19.96;49.31
64628;BME280;59036;50.960;0.314;2022-09-13T02:05:06;99276.75;;;19.40;49.72
64628;BME280;59036;50.960;0.314;2022-09-13T02:07:39;99275.91;;;19.62;50.30
64628;BME280;59036;50.960;0.314;2022-09-13T02:10:11;99275.08;;;19.64;50.32
64628;BME280;59036;50.960;0.314;2022-09-13T02:12:42;99272.90;;;19.64;50.24
64628;BME280;59036;50.960;0.314;2022-09-13T02:15:15;99269.42;;;19.52;50.92
64628;BME280;59036;50.960;0.314;2022-09-13T02:17:45;99268.72;;;19.29;50.66
64628;BME280;59036;50.960;0.314;2022-09-13T02:20:19;99259.87;;;19.35;50.84
64628;BME280;59036;50.960;0.314;2022-09-13T02:22:51;99260.33;;;19.62;50.78
64628;BME280;59036;50.960;0.314;2022-09-13T02:25:22;99262.37;;;18.59;52.85
64628;BME280;59036;50.960;0.314;2022-09-13T02:27:54;99256.71;;;19.20;52.30
64628;BME280;59036;50.960;0.314;2022-09-13T02:30:22;99256.77;;;19.25;51.66
64628;BME280;59036;50.960;0.314;2022-09-13T02:32:55;99255.65;;;18.96;52.88
64628;BME280;59036;50.960;0.314;2022-09-13T02:35:29;99253.53;;;18.80;53.80
64628;BME280;59036;50.960;0.314;2022-09-13T02:38:01;99254.10;;;19.34;52.71
64628;BME280;59036;50.960;0.314;2022-09-13T02:40:36;99258.63;;;18.63;54.11
64628;BME280;59036;50.960;0.314;2022-09-13T02:43:09;99263.91;;;19.41;52.49
64628;BME280;59036;50.960;0.314;2022-09-13T02:45:44;99265.18;;;19.80;52.24
64628;BME280;59036;50.960;0.314;2022-09-13T02:48:19;99265.55;;;18.94;53.73
64628;BME280;59036;50.960;0.314;2022-09-13T02:50:58;99268.14;;;19.26;53.55
64628;BME280;59036;50.960;0.314;2022-09-13T02:53:31;99268.36;;;19.09;54.05
64628;BME280;59036;50.960;0.314;2022-09-13T02:56:14;99268.94;;;18.76;54.77
64628;BME280;59036;50.960;0.314;2022-09-13T02:58:47;99266.29;;;18.44;55.29
64628;BME280;59036;50.960;0.314;2022-09-13T03:01:16;99263.79;;;19.14;54.33
64628;BME280;59036;50.960;0.314;2022-09-13T03:03:44;99264.23;;;18.34;55.40
64628;BME280;59036;50.960;0.314;2022-09-13T03:06:11;99265.63;;;18.60;55.89
64628;BME280;59036;50.960;0.314;2022-09-13T03:08:38;99262.48;;;18.70;55.81
64628;BME280;59036;50.960;0.314;2022-09-13T03:11:10;99260.62;;;18.94;55.02
64628;BME280;59036;50.960;0.314;2022-09-13T03:13:57;99264.69;;;17.95;57.46
64628;BME280;59036;50.960;0.314;2022-09-13T03:16:39;99262.57;;;17.96;57.99
64628;BME280;59036;50.960;0.314;2022-09-13T03:19:22;99260.05;;;17.81;59.40
64628;BME280;59036;50.960;0.314;2022-09-13T03:22:02;99266.98;;;17.80;61.25
64628;BME280;59036;50.960;0.314;2022-09-13T03:24:46;99271.15;;;18.78;58.66
64628;BME280;59036;50.960;0.314;2022-09-13T03:27:22;99274.72;;;18.32;59.79
64628;BME280;59036;50.960;0.314;2022-09-13T03:29:56;99282.34;;;18.16;60.88
64628;BME280;59036;50.960;0.314;2022-09-13T03:32:31;99284.87;;;18.37;61.33
64628;BME280;59036;50.960;0.314;2022-09-13T03:35:06;99284.46;;;19.05;59.64
64628;BME280;59036;50.960;0.314;2022-09-13T03:37:43;99283.06;;;18.08;61.46
64628;BME280;59036;50.960;0.314;2022-09-13T03:40:15;99287.72;;;17.55;62.85
64628;BME280;59036;50.960;0.314;2022-09-13T03:42:50;99287.68;;;18.08;61.93
64628;BME280;59036;50.960;0.314;2022-09-13T03:45:23;99291.41;;;18.78;61.29
64628;BME280;59036;50.960;0.314;2022-09-13T03:47:52;99292.47;;;18.19;61.31
64628;BME280;59036;50.960;0.314;2022-09-13T03:50:22;99289.71;;;18.26;61.23
64628;BME280;59036;50.960;0.314;2022-09-13T03:52:53;99284.09;;;18.48;61.41
64628;BME280;59036;50.960;0.314;2022-09-13T03:55:23;99280.49;;;18.78;61.07
64628;BME280;59036;50.960;0.314;2022-09-13T03:57:50;99279.60;;;17.85;62.66
64628;BME280;59036;50.960;0.314;2022-09-13T04:00:19;99281.96;;;17.86;63.24
64628;BME280;59036;50.960;0.314;2022-09-13T04:02:46;99285.56;;;18.23;62.42
64628;BME280;59036;50.960;0.314;2022-09-13T04:05:13;99288.02;;;18.39;62.97
64628;BME280;59036;50.960;0.314;2022-09-13T04:07:40;99289.24;;;18.31;63.28
64628;BME280;59036;50.960;0.314;2022-09-13T04:10:08;99288.67;;;18.17;63.42
64628;BME280;59036;50.960;0.314;2022-09-13T04:12:35;99288.57;;;17.64;64.87
64628;BME280;59036;50.960;0.314;2022-09-13T04:15:03;99290.41;;;17.94;64.71
64628;BME280;59036;50.960;0.314;2022-09-13T04:17:30;99294.93;;;17.81;65.39
64628;BME280;59036;50.960;0.314;2022-09-13T04:19:57;99291.79;;;18.02;64.79
64628;BME280;59036;50.960;0.314;2022-09-13T04:22:25;99292.44;;;17.90;65.35
64628;BME280;59036;50.960;0.314;2022-09-13T04:24:52;99296.19;;;18.13;64.83
64628;BME280;59036;50.960;0.314;2022-09-13T04:27:19;99300.02;;;18.40;64.35
64628;BME280;59036;50.960;0.314;2022-09-13T04:29:46;99300.59;;;18.03;65.16
64628;BME280;59036;50.960;0.314;2022-09-13T04:32:13;99304.18;;;17.91;65.63
64628;BME280;59036;50.960;0.314;2022-09-13T04:34:40;99308.34;;;18.03;65.51
64628;BME280;59036;50.960;0.314;2022-09-13T04:37:07;99307.08;;;18.10;65.44
64628;BME280;59036;50.960;0.314;2022-09-13T04:39:35;99309.52;;;18.08;65.85
64628;BME280;59036;50.960;0.314;2022-09-13T04:42:02;99315.34;;;17.85;66.14
64628;BME280;59036;50.960;0.314;2022-09-13T04:44:29;99311.65;;;17.92;65.52
64628;BME280;59036;50.960;0.314;2022-09-13T04:46:57;99313.49;;;18.14;66.00
64628;BME280;59036;50.960;0.314;2022-09-13T04:49:24;99313.57;;;17.50;67.46
64628;BME280;59036;50.960;0.314;2022-09-13T04:51:51;99314.71;;;17.52;67.86
64628;BME280;59036;50.960;0.314;2022-09-13T04:54:18;99314.86;;;17.27;70.03
64628;BME280;59036;50.960;0.314;2022-09-13T04:56:45;99315.12;;;17.31;69.31
64628;BME280;59036;50.960;0.314;2022-09-13T04:59:13;99321.86;;;17.43;69.05
64628;BME280;59036;50.960;0.314;2022-09-13T05:01:40;99327.47;;;17.28;69.12
64628;BME280;59036;50.960;0.314;2022-09-13T05:04:09;99329.09;;;16.95;70.68
64628;BME280;59036;50.960;0.314;2022-09-13T05:06:36;99327.80;;;18.22;67.01
64628;BME280;59036;50.960;0.314;2022-09-13T05:09:03;99327.75;;;18.31;66.62
64628;BME280;59036;50.960;0.314;2022-09-13T05:11:31;99331.44;;;17.76;68.75
64628;BME280;59036;50.960;0.314;2022-09-13T05:13:59;99326.73;;;18.50;66.40
64628;BME280;59036;50.960;0.314;2022-09-13T05:16:28;99330.08;;;17.73;68.10
64628;BME280;59036;50.960;0.314;2022-09-13T05:18:56;99329.31;;;17.97;68.27
64628;BME280;59036;50.960;0.314;2022-09-13T05:21:24;99327.05;;;18.03;67.68
64628;BME280;59036;50.960;0.314;2022-09-13T05:23:51;99327.17;;;17.83;68.51
64628;BME280;59036;50.960;0.314;2022-09-13T05:26:20;99326.47;;;17.92;68.40
64628;BME280;59036;50.960;0.314;2022-09-13T05:28:48;99322.48;;;17.51;69.72
64628;BME280;59036;50.960;0.314;2022-09-13T05:31:18;99321.08;;;17.53;70.27
64628;BME280;59036;50.960;0.314;2022-09-13T05:33:47;99322.20;;;17.39;70.04
64628;BME280;59036;50.960;0.314;2022-09-13T05:36:17;99320.61;;;17.84;70.07
64628;BME280;59036;50.960;0.314;2022-09-13T05:38:44;99324.53;;;17.19;71.65
64628;BME280;59036;50.960;0.314;2022-09-13T05:41:11;99326.58;;;17.27;72.01
64628;BME280;59036;50.960;0.314;2022-09-13T05:43:38;99326.85;;;17.05;73.52
64628;BME280;59036;50.960;0.314;2022-09-13T05:46:09;99323.99;;;16.77;72.95
64628;BME280;59036;50.960;0.314;2022-09-13T05:48:37;99327.06;;;17.33;71.52
64628;BME280;59036;50.960;0.314;2022-09-13T05:51:06;99329.37;;;17.34;72.23
64628;BME280;59036;50.960;0.314;2022-09-13T05:53:34;99330.85;;;17.86;71.21
64628;BME280;59036;50.960;0.314;2022-09-13T05:56:02;99336.13;;;17.34;71.90
64628;BME280;59036;50.960;0.314;2022-09-13T05:58:29;99340.96;;;17.07;72.27
64628;BME280;59036;50.960;0.314;2022-09-13T06:00:57;99339.98;;;18.16;70.11
64628;BME280;59036;50.960;0.314;2022-09-13T06:03:24;99344.11;;;17.34;72.09
64628;BME280;59036;50.960;0.314;2022-09-13T06:05:54;99338.72;;;17.25;71.85
64628;BME280;59036;50.960;0.314;2022-09-13T06:08:22;99338.09;;;17.22;72.26
64628;BME280;59036;50.960;0.314;2022-09-13T06:10:54;99340.40;;;17.72;72.19
64628;BME280;59036;50.960;0.314;2022-09-13T06:13:22;99345.42;;;17.38;73.16
64628;BME280;59036;50.960;0.314;2022-09-13T06:15:49;99343.97;;;18.07;71.34
64628;BME280;59036;50.960;0.314;2022-09-13T06:18:17;99341.84;;;17.65;71.79
64628;BME280;59036;50.960;0.314;2022-09-13T06:20:44;99342.47;;;17.47;72.83
64628;BME280;59036;50.960;0.314;2022-09-13T06:23:12;99344.59;;;17.45;73.32
64628;BME280;59036;50.960;0.314;2022-09-13T06:25:41;99338.36;;;17.32;73.67
64628;BME280;59036;50.960;0.314;2022-09-13T06:28:09;99336.28;;;17.26;74.42
64628;BME280;59036;50.960;0.314;2022-09-13T06:30:36;99329.51;;;17.08;74.37
64628;BME280;59036;50.960;0.314;2022-09-13T06:33:03;99325.09;;;17.61;73.06
64628;BME280;59036;50.960;0.314;2022-09-13T06:35:30;99325.09;;;17.36;73.55
64628;BME280;59036;50.960;0.314;2022-09-13T06:37:57;99318.92;;;17.33;73.14
64628;BME280;59036;50.960;0.314;2022-09-13T06:40:25;99321.12;;;17.49;73.21
64628;BME280;59036;50.960;0.314;2022-09-13T06:42:52;99326.65;;;17.35;74.28
64628;BME280;59036;50.960;0.314;2022-09-13T06:45:20;99325.50;;;17.81;73.42
64628;BME280;59036;50.960;0.314;2022-09-13T06:47:47;99327.37;;;17.08;75.93
64628;BME280;59036;50.960;0.314;2022-09-13T06:50:14;99323.37;;;17.53;73.66
64628;BME280;59036;50.960;0.314;2022-09-13T06:52:42;99319.95;;;17.77;73.81
64628;BME280;59036;50.960;0.314;2022-09-13T06:55:09;99314.31;;;17.93;73.22
64628;BME280;59036;50.960;0.314;2022-09-13T06:57:36;99312.38;;;17.34;74.79
64628;BME280;59036;50.960;0.314;2022-09-13T07:00:04;99306.32;;;17.55;73.90
64628;BME280;59036;50.960;0.314;2022-09-13T07:02:32;99306.66;;;17.52;73.68
64628;BME280;59036;50.960;0.314;2022-09-13T07:04:59;99306.37;;;17.88;73.37
64628;BME280;59036;50.960;0.314;2022-09-13T07:07:27;99309.22;;;17.69;73.11
64628;BME280;59036;50.960;0.314;2022-09-13T07:09:54;99304.61;;;18.11;72.70
64628;BME280;59036;50.960;0.314;2022-09-13T07:12:21;99304.22;;;17.73;73.20
64628;BME280;59036;50.960;0.314;2022-09-13T07:14:49;99306.19;;;17.68;74.83
64628;BME280;59036;50.960;0.314;2022-09-13T07:17:16;99304.17;;;18.09;72.79
64628;BME280;59036;50.960;0.314;2022-09-13T07:19:43;99302.83;;;18.14;73.20
64628;BME280;59036;50.960;0.314;2022-09-13T07:22:10;99292.89;;;17.95;72.70
64628;BME280;59036;50.960;0.314;2022-09-13T07:24:37;99287.10;;;17.74;73.42
64628;BME280;59036;50.960;0.314;2022-09-13T07:27:04;99289.58;;;17.82;73.43
64628;BME280;59036;50.960;0.314;2022-09-13T07:29:31;99293.19;;;16.97;76.09
64628;BME280;59036;50.960;0.314;2022-09-13T07:31:58;99293.90;;;17.74;74.47
64628;BME280;59036;50.960;0.314;2022-09-13T07:34:25;99291.42;;;17.69;73.90
64628;BME280;59036;50.960;0.314;2022-09-13T07:36:52;99281.23;;;18.07;72.74
64628;BME280;59036;50.960;0.314;2022-09-13T07:39:20;99284.07;;;17.76;74.29
64628;BME280;59036;50.960;0.314;2022-09-13T07:41:47;99279.24;;;17.76;73.71
64628;BME280;59036;50.960;0.314;2022-09-13T07:44:14;99277.97;;;18.45;72.31
64628;BME280;59036;50.960;0.314;2022-09-13T07:46:42;99279.95;;;19.08;70.47
64628;BME280;59036;50.960;0.314;2022-09-13T07:49:10;99277.86;;;17.82;73.30
64628;BME280;59036;50.960;0.314;2022-09-13T07:51:40;99273.74;;;18.44;72.27
64628;BME280;59036;50.960;0.314;2022-09-13T07:54:10;99271.43;;;18.25;73.32
64628;BME280;59036;50.960;0.314;2022-09-13T07:56:39;99270.46;;;18.20;72.74
64628;BME280;59036;50.960;0.314;2022-09-13T07:59:10;99273.10;;;18.27;73.22
64628;BME280;59036;50.960;0.314;2022-09-13T08:01:39;99271.09;;;19.02;71.02
64628;BME280;59036;50.960;0.314;2022-09-13T08:04:08;99271.67;;;18.69;70.35
64628;BME280;59036;50.960;0.314;2022-09-13T08:06:38;99272.62;;;18.63;72.27
64628;BME280;59036;50.960;0.314;2022-09-13T08:09:07;99272.73;;;18.21;72.39
64628;BME280;59036;50.960;0.314;2022-09-13T08:11:37;99265.94;;;18.22;72.05
64628;BME280;59036;50.960;0.314;2022-09-13T08:14:06;99262.95;;;18.31;72.16
64628;BME280;59036;50.960;0.314;2022-09-13T08:16:34;99261.30;;;18.31;71.67
64628;BME280;59036;50.960;0.314;2022-09-13T08:19:02;99252.91;;;18.13;72.22
64628;BME280;59036;50.960;0.314;2022-09-13T08:21:32;99252.63;;;17.86;73.18
64628;BME280;59036;50.960;0.314;2022-09-13T08:24:01;99247.88;;;17.94;72.49
64628;BME280;59036;50.960;0.314;2022-09-13T08:26:30;99249.96;;;17.86;72.68
64628;BME280;59036;50.960;0.314;2022-09-13T08:28:59;99257.33;;;17.86;73.55
64628;BME280;59036;50.960;0.314;2022-09-13T08:31:27;99263.47;;;17.18;74.34
64628;BME280;59036;50.960;0.314;2022-09-13T08:33:56;99261.23;;;18.05;73.30
64628;BME280;59036;50.960;0.314;2022-09-13T08:36:25;99256.94;;;17.94;72.86
64628;BME280;59036;50.960;0.314;2022-09-13T08:38:55;99252.16;;;18.13;73.19
64628;BME280;59036;50.960;0.314;2022-09-13T08:41:36;99258.08;;;18.63;71.70
64628;BME280;59036;50.960;0.314;2022-09-13T08:44:11;99258.30;;;18.06;72.84
64628;BME280;59036;50.960;0.314;2022-09-13T08:46:44;99257.52;;;17.71;73.67
64628;BME280;59036;50.960;0.314;2022-09-13T08:49:16;99259.37;;;18.06;73.51
64628;BME280;59036;50.960;0.314;2022-09-13T08:51:47;99264.99;;;17.92;73.36
64628;BME280;59036;50.960;0.314;2022-09-13T08:54:16;99269.86;;;17.60;75.36
64628;BME280;59036;50.960;0.314;2022-09-13T08:56:51;99271.60;;;17.83;74.03
64628;BME280;59036;50.960;0.314;2022-09-13T08:59:30;99273.85;;;17.64;74.58
64628;BME280;59036;50.960;0.314;2022-09-13T09:02:13;99272.99;;;17.22;75.64
64628;BME280;59036;50.960;0.314;2022-09-13T09:04:49;99267.80;;;17.33;75.50
64628;BME280;59036;50.960;0.314;2022-09-13T09:07:20;99260.74;;;17.43;75.20
64628;BME280;59036;50.960;0.314;2022-09-13T09:09:52;99254.67;;;18.27;73.25
64628;BME280;59036;50.960;0.314;2022-09-13T09:12:27;99258.98;;;17.85;75.19
64628;BME280;59036;50.960;0.314;2022-09-13T09:15:02;99264.11;;;17.47;74.60
64628;BME280;59036;50.960;0.314;2022-09-13T09:17:43;99269.41;;;18.08;73.36
64628;BME280;59036;50.960;0.314;2022-09-13T09:20:22;99270.58;;;17.38;75.50
64628;BME280;59036;50.960;0.314;2022-09-13T09:22:51;99264.12;;;17.91;73.51
64628;BME280;59036;50.960;0.314;2022-09-13T09:25:23;99270.04;;;17.38;74.98
64628;BME280;59036;50.960;0.314;2022-09-13T09:27:50;99273.79;;;17.12;76.71
64628;BME280;59036;50.960;0.314;2022-09-13T09:30:17;99286.65;;;16.76;77.88
64628;BME280;59036;50.960;0.314;2022-09-13T09:33:03;99290.71;;;17.92;74.96
64628;BME280;59036;50.960;0.314;2022-09-13T09:35:45;99298.20;;;18.02;73.98
64628;BME280;59036;50.960;0.314;2022-09-13T09:38:31;99309.98;;;17.81;74.43
64628;BME280;59036;50.960;0.314;2022-09-13T09:41:02;99316.07;;;17.27;75.67
64628;BME280;59036;50.960;0.314;2022-09-13T09:43:34;99316.52;;;17.46;75.39
64628;BME280;59036;50.960;0.314;2022-09-13T09:46:06;99317.18;;;17.70;74.02
64628;BME280;59036;50.960;0.314;2022-09-13T09:48:39;99317.86;;;17.41;74.42
64628;BME280;59036;50.960;0.314;2022-09-13T09:51:08;99318.98;;;17.16;77.28
64628;BME280;59036;50.960;0.314;2022-09-13T09:53:41;99314.02;;;16.62;78.19
64628;BME280;59036;50.960;0.314;2022-09-13T09:56:20;99307.37;;;17.07;77.05
64628;BME280;59036;50.960;0.314;2022-09-13T09:58:48;99310.74;;;16.91;77.42
64628;BME280;59036;50.960;0.314;2022-09-13T10:01:20;99314.17;;;16.72;77.73
64628;BME280;59036;50.960;0.314;2022-09-13T10:03:51;99325.47;;;16.80;77.58
64628;BME280;59036;50.960;0.314;2022-09-13T10:06:23;99332.25;;;17.39;75.15
64628;BME280;59036;50.960;0.314;2022-09-13T10:08:57;99346.70;;;17.28;75.88
64628;BME280;59036;50.960;0.314;2022-09-13T10:11:38;99358.07;;;16.92;76.46
64628;BME280;59036;50.960;0.314;2022-09-13T10:14:06;99371.24;;;16.54;76.53
64628;BME280;59036;50.960;0.314;2022-09-13T10:17:01;99381.41;;;17.12;75.52
64628;BME280;59036;50.960;0.314;2022-09-13T10:19:28;99383.22;;;17.49;75.15
64628;BME280;59036;50.960;0.314;2022-09-13T10:22:00;99378.55;;;17.94;71.97
64628;BME280;59036;50.960;0.314;2022-09-13T10:24:27;99379.10;;;18.31;70.85
64628;BME280;59036;50.960;0.314;2022-09-13T10:26:56;99385.59;;;18.29;70.94
64628;BME280;59036;50.960;0.314;2022-09-13T10:29:24;99381.29;;;18.14;70.40
64628;BME280;59036;50.960;0.314;2022-09-13T10:31:53;99376.98;;;18.20;71.13
64628;BME280;59036;50.960;0.314;2022-09-13T10:34:23;99366.59;;;18.31;70.19
64628;BME280;59036;50.960;0.314;2022-09-13T10:36:55;99351.70;;;18.35;69.63
64628;BME280;59036;50.960;0.314;2022-09-13T10:39:24;99344.15;;;17.58;72.11
64628;BME280;59036;50.960;0.314;2022-09-13T10:41:55;99338.79;;;17.97;71.08
64628;BME280;59036;50.960;0.314;2022-09-13T10:44:29;99347.35;;;17.90;71.59
64628;BME280;59036;50.960;0.314;2022-09-13T10:47:05;99352.38;;;17.95;71.76
64628;BME280;59036;50.960;0.314;2022-09-13T10:49:41;99352.83;;;18.33;70.91
64628;BME280;59036;50.960;0.314;2022-09-13T10:52:31;99350.33;;;16.90;74.63
64628;BME280;59036;50.960;0.314;2022-09-13T10:55:33;99354.45;;;17.06;74.77
64628;BME280;59036;50.960;0.314;2022-09-13T10:58:18;99352.60;;;17.64;73.76
64628;BME280;59036;50.960;0.314;2022-09-13T11:01:02;99355.94;;;17.45;74.10
64628;BME280;59036;50.960;0.314;2022-09-13T11:03:45;99354.32;;;18.25;72.40
64628;BME280;59036;50.960;0.314;2022-09-13T11:06:18;99355.95;;;18.13;71.99
64628;BME280;59036;50.960;0.314;2022-09-13T11:08:59;99359.14;;;18.00;72.25
64628;BME280;59036;50.960;0.314;2022-09-13T11:11:38;99362.74;;;18.19;71.18
64628;BME280;59036;50.960;0.314;2022-09-13T11:14:20;99367.61;;;17.82;72.89
64628;BME280;59036;50.960;0.314;2022-09-13T11:16:56;99373.15;;;17.27;74.54
64628;BME280;59036;50.960;0.314;2022-09-13T11:19:45;99367.16;;;18.32;71.68
64628;BME280;59036;50.960;0.314;2022-09-13T11:22:28;99372.21;;;17.84;73.83
64628;BME280;59036;50.960;0.314;2022-09-13T11:25:07;99367.35;;;18.13;72.50
64628;BME280;59036;50.960;0.314;2022-09-13T11:27:45;99374.01;;;17.71;74.16
64628;BME280;59036;50.960;0.314;2022-09-13T11:30:18;99373.92;;;17.63;73.59
64628;BME280;59036;50.960;0.314;2022-09-13T11:32:57;99377.09;;;17.47;73.52
64628;BME280;59036;50.960;0.314;2022-09-13T11:35:41;99372.10;;;18.24;72.26
64628;BME280;59036;50.960;0.314;2022-09-13T11:38:26;99366.87;;;17.93;73.05
64628;BME280;59036;50.960;0.314;2022-09-13T11:41:07;99368.14;;;17.25;74.38
64628;BME280;59036;50.960;0.314;2022-09-13T11:43:53;99368.14;;;17.40;74.43
64628;BME280;59036;50.960;0.314;2022-09-13T11:46:28;99370.36;;;17.30;75.97
64628;BME280;59036;50.960;0.314;2022-09-13T11:49:12;99376.73;;;17.84;74.75
64628;BME280;59036;50.960;0.314;2022-09-13T11:51:56;99372.61;;;18.07;72.83
64628;BME280;59036;50.960;0.314;2022-09-13T11:54:39;99373.89;;;18.12;72.13
64628;BME280;59036;50.960;0.314;2022-09-13T11:57:11;99374.00;;;18.22;71.24
64628;BME280;59036;50.960;0.314;2022-09-13T11:59:42;99368.34;;;18.29;71.64
64628;BME280;59036;50.960;0.314;2022-09-13T12:02:18;99367.92;;;18.36;71.89
64628;BME280;59036;50.960;0.314;2022-09-13T12:04:51;99365.85;;;17.31;74.04
64628;BME280;59036;50.960;0.314;2022-09-13T12:07:28;99363.04;;;17.68;74.62
64628;BME280;59036;50.960;0.314;2022-09-13T12:10:02;99357.73;;;17.29;75.33
64628;BME280;59036;50.960;0.314;2022-09-13T12:12:33;99356.50;;;17.69;74.74
64628;BME280;59036;50.960;0.314;2022-09-13T12:15:04;99359.39;;;17.42;74.73
64628;BME280;59036;50.960;0.314;2022-09-13T12:17:37;99357.78;;;17.63;74.33
64628;BME280;59036;50.960;0.314;2022-09-13T12:20:15;99360.57;;;17.81;74.56
64628;BME280;59036;50.960;0.314;2022-09-13T12:22:46;99364.65;;;17.41;75.00
64628;BME280;59036;50.960;0.314;2022-09-13T12:25:20;99361.98;;;17.99;73.23
64628;BME280;59036;50.960;0.314;2022-09-13T12:27:55;99361.84;;;18.26;72.45
64628;BME280;59036;50.960;0.314;2022-09-13T12:30:30;99355.37;;;18.26;72.97
64628;BME280;59036;50.960;0.314;2022-09-13T12:32:59;99350.23;;;18.01;73.28
64628;BME280;59036;50.960;0.314;2022-09-13T12:35:29;99351.88;;;17.85;73.33
64628;BME280;59036;50.960;0.314;2022-09-13T12:38:16;99351.38;;;17.37;73.97
64628;BME280;59036;50.960;0.314;2022-09-13T12:41:03;99352.07;;;17.54;74.54
64628;BME280;59036;50.960;0.314;2022-09-13T12:44:51;99350.16;;;17.58;74.07
64628;BME280;59036;50.960;0.314;2022-09-13T12:47:40;99351.55;;;17.35;74.39
64628;BME280;59036;50.960;0.314;2022-09-13T12:50:19;99342.62;;;18.50;72.34
64628;BME280;59036;50.960;0.314;2022-09-13T12:52:58;99341.57;;;17.82;74.35
64628;BME280;59036;50.960;0.314;2022-09-13T12:55:43;99342.76;;;17.92;73.48
64628;BME280;59036;50.960;0.314;2022-09-13T12:58:34;99346.43;;;17.79;74.56
64628;BME280;59036;50.960;0.314;2022-09-13T13:01:09;99341.19;;;17.59;73.79
64628;BME280;59036;50.960;0.314;2022-09-13T13:03:47;99342.49;;;18.00;73.04
64628;BME280;59036;50.960;0.314;2022-09-13T13:06:24;99335.63;;;17.63;74.32
64628;BME280;59036;50.960;0.314;2022-09-13T13:08:54;99334.57;;;17.50;75.05
64628;BME280;59036;50.960;0.314;2022-09-13T13:11:24;99328.41;;;17.56;74.31
64628;BME280;59036;50.960;0.314;2022-09-13T13:13:55;99325.90;;;17.46;74.86
64628;BME280;59036;50.960;0.314;2022-09-13T13:16:27;99326.79;;;18.29;72.65
64628;BME280;59036;50.960;0.314;2022-09-13T13:18:55;99332.62;;;18.34;72.07
64628;BME280;59036;50.960;0.314;2022-09-13T13:21:28;99330.86;;;18.27;71.27
64628;BME280;59036;50.960;0.314;2022-09-13T13:25:29;99325.58;;;18.86;69.57
64628;BME280;59036;50.960;0.314;2022-09-13T13:27:56;99329.43;;;17.76;74.45
64628;BME280;59036;50.960;0.314;2022-09-13T13:30:55;99326.70;;;18.01;73.31